Time;durP1;ratioP1;P1;durP2;ratioP2;P2;SDS_P1;SDS_P2;PMS_P1;PMS_P2;Temp;Humidity;BMP_temperature;BMP_pressure;BME280_temperature;BME280_humidity;BME280_pressure;Samples;Min_cycle;Max_cycle;Signal;HPM_P1;HPM_P2
2022/03/27 00:00:37;;;;;;;7.88;4.35;;;4.30;99.90;;;;;;4990252;28;20069;-82
2022/03/27 00:03:05;;;;;;;6.65;3.90;;;4.30;99.90;;;;;;4988872;28;20092;-81
2022/03/27 00:05:31;;;;;;;8.52;4.70;;;4.20;99.90;;;;;;4990608;28;20053;-82
2022/03/27 00:07:57;;;;;;;7.40;4.50;;;4.30;99.90;;;;;;4991106;28;20046;-82
2022/03/27 00:10:23;;;;;;;7.47;4.10;;;4.20;99.90;;;;;;4972998;28;20104;-82
2022/03/27 00:12:48;;;;;;;6.88;3.63;;;4.60;99.90;;;;;;4991666;28;20050;-81
2022/03/27 00:15:14;;;;;;;122.13;7.07;;;3.90;99.90;;;;;;4974040;28;20050;-81
2022/03/27 00:17:40;;;;;;;28.83;3.20;;;4.70;99.90;;;;;;4990185;28;20410;-81
2022/03/27 00:20:08;;;;;;;5.78;2.70;;;4.60;99.90;;;;;;5008746;28;20125;-82
2022/03/27 00:22:36;;;;;;;22.90;3.13;;;4.30;99.90;;;;;;4973918;28;20133;-81
2022/03/27 00:25:11;;;;;;;502.98;13.32;;;4.70;99.90;;;;;;4990540;28;20111;-82
2022/03/27 00:27:36;;;;;;;241.70;8.52;;;5.30;99.90;;;;;;4990991;28;20104;-81
2022/03/27 00:30:03;;;;;;;5.68;3.13;;;5.30;99.90;;;;;;4973488;28;20485;-81
2022/03/27 00:32:29;;;;;;;8.55;3.90;;;4.40;99.90;;;;;;4974128;28;20038;-80
2022/03/27 00:34:54;;;;;;;7.78;4.40;;;4.40;99.90;;;;;;4990793;28;20052;-81
2022/03/27 00:37:20;;;;;;;10.23;4.13;;;4.50;99.90;;;;;;4989554;28;20053;-81
2022/03/27 00:39:46;;;;;;;6.85;3.72;;;4.70;99.90;;;;;;4990279;28;20041;-80
2022/03/27 00:42:12;;;;;;;11.65;4.40;;;4.80;99.90;;;;;;4990513;28;20053;-81
2022/03/27 00:44:38;;;;;;;11.15;5.28;;;5.20;99.90;;;;;;4989186;28;20046;-81
2022/03/27 00:47:06;;;;;;;18.35;5.90;;;4.90;99.90;;;;;;4991029;28;20100;-81
2022/03/27 00:49:34;;;;;;;22.42;5.70;;;5.00;99.90;;;;;;4990175;28;20513;-81
2022/03/27 00:51:59;;;;;;;20.05;5.40;;;5.10;99.90;;;;;;4973793;28;20050;-81
2022/03/27 00:54:25;;;;;;;14.85;5.22;;;5.10;99.90;;;;;;5008453;28;20054;-81
2022/03/27 00:56:51;;;;;;;12.75;4.85;;;5.10;99.90;;;;;;4974503;28;20042;-80
2022/03/27 00:59:17;;;;;;;14.30;5.22;;;5.10;99.90;;;;;;4972922;28;20049;-81
2022/03/27 01:01:44;;;;;;;7.68;3.28;;;5.00;99.90;;;;;;4990654;28;20046;-81
2022/03/27 01:04:10;;;;;;;13.23;4.10;;;4.90;99.90;;;;;;4990050;28;20077;-81
2022/03/27 01:06:43;;;;;;;10.88;3.90;;;4.80;99.90;;;;;;4974396;28;20096;-81
2022/03/27 01:12:14;;;;;;;13.55;4.05;;;4.70;99.90;;;;;;4990589;28;20060;-81
2022/03/27 01:14:40;;;;;;;10.98;4.57;;;4.60;99.90;;;;;;4976576;28;20054;-81
2022/03/27 01:17:08;;;;;;;22.08;3.70;;;4.50;99.90;;;;;;4994150;28;20489;-81
2022/03/27 01:19:38;;;;;;;9.07;2.92;;;4.50;99.90;;;;;;4978047;28;20132;-81
2022/03/27 01:22:04;;;;;;;36.17;4.20;;;4.40;99.90;;;;;;4994118;28;20049;-81
2022/03/27 01:24:29;;;;;;;8.77;3.42;;;4.40;99.90;;;;;;4994462;28;20050;-82
2022/03/27 01:26:55;;;;;;;9.35;3.95;;;4.30;99.90;;;;;;4993511;28;20441;-81
2022/03/27 01:29:21;;;;;;;4.43;2.35;;;4.60;99.90;;;;;;4993409;28;20085;-81
2022/03/27 01:31:51;;;;;;;13.38;4.40;;;4.30;99.90;;;;;;4995002;28;20046;-81
2022/03/27 01:34:17;;;;;;;7.85;3.53;;;4.20;99.90;;;;;;4976276;28;20637;-81
2022/03/27 01:36:43;;;;;;;49.35;4.30;;;4.70;99.90;;;;;;4978163;28;20864;-81
2022/03/27 01:39:10;;;;;;;8.25;3.92;;;4.20;99.90;;;;;;4976709;28;20054;-81
2022/03/27 01:41:37;;;;;;;11.45;4.78;;;4.20;99.90;;;;;;4977066;28;20089;-81
2022/03/27 01:44:05;;;;;;;12.07;4.32;;;4.10;99.90;;;;;;4975974;28;20046;-81
2022/03/27 01:46:33;;;;;;;12.73;4.38;;;4.10;99.90;;;;;;4977326;28;20046;-81
2022/03/27 01:49:01;;;;;;;11.02;4.40;;;4.10;99.90;;;;;;4992342;28;20056;-81
2022/03/27 01:51:28;;;;;;;16.17;5.50;;;4.00;99.90;;;;;;4993847;28;20465;-82
2022/03/27 01:53:54;;;;;;;28.95;5.13;;;4.00;99.90;;;;;;4977553;28;20054;-81
2022/03/27 01:56:19;;;;;;;16.25;4.60;;;4.00;99.90;;;;;;4976315;28;20421;-81
2022/03/27 01:58:45;;;;;;;57.58;4.85;;;3.90;99.90;;;;;;4977278;28;20591;-81
2022/03/27 02:01:11;;;;;;;43.03;4.70;;;4.00;99.90;;;;;;4992175;28;20541;-81
2022/03/27 02:03:37;;;;;;;103.20;4.55;;;4.00;99.90;;;;;;4993413;28;20050;-82
2022/03/27 02:06:05;;;;;;;73.35;4.95;;;3.90;99.90;;;;;;4993258;28;20054;-81
2022/03/27 02:08:32;;;;;;;507.20;18.00;;;3.90;99.90;;;;;;4976592;28;20042;-81
2022/03/27 02:10:58;;;;;;;101.00;7.03;;;3.90;99.90;;;;;;4977177;28;20041;-82
2022/03/27 02:13:23;;;;;;;236.75;10.88;;;3.90;99.90;;;;;;4992697;28;20156;-82
2022/03/27 02:15:50;;;;;;;18.65;7.03;;;4.10;99.90;;;;;;4975784;28;20045;-82
2022/03/27 02:18:16;;;;;;;351.90;14.30;;;3.90;99.90;;;;;;4976078;28;20042;-82
2022/03/27 02:20:44;;;;;;;16.02;7.05;;;4.00;99.90;;;;;;4993564;28;20486;-82
2022/03/27 02:23:11;;;;;;;21.80;7.55;;;4.00;99.90;;;;;;4991757;28;20050;-82
2022/03/27 02:25:37;;;;;;;24.23;7.28;;;4.00;99.90;;;;;;4976291;28;20053;-82
2022/03/27 02:28:03;;;;;;;31.40;7.50;;;3.90;99.90;;;;;;4976255;28;20037;-82
2022/03/27 02:30:29;;;;;;;36.38;8.50;;;4.00;99.90;;;;;;4991434;28;20061;-82
2022/03/27 02:32:56;;;;;;;71.72;9.55;;;4.00;99.90;;;;;;4976963;28;20042;-81
2022/03/27 02:35:22;;;;;;;433.95;15.25;;;4.00;99.90;;;;;;4992034;28;20057;-82
2022/03/27 02:37:47;;;;;;;31.88;9.05;;;4.00;99.90;;;;;;4992477;28;20375;-81
2022/03/27 02:40:13;;;;;;;25.73;8.85;;;4.00;99.90;;;;;;4975624;28;20042;-81
2022/03/27 02:42:39;;;;;;;26.23;11.02;;;4.00;99.90;;;;;;4976479;28;20435;-81
2022/03/27 02:45:05;;;;;;;38.45;12.18;;;4.00;99.90;;;;;;4974544;28;20046;-83
2022/03/27 02:47:33;;;;;;;23.77;10.02;;;4.10;99.90;;;;;;4992158;28;20045;-82
2022/03/27 02:49:58;;;;;;;26.55;9.27;;;4.50;99.90;;;;;;4993015;28;20049;-83
2022/03/27 02:52:24;;;;;;;257.08;13.52;;;4.10;99.90;;;;;;4991681;28;20398;-83
2022/03/27 02:54:50;;;;;;;38.60;12.30;;;4.00;99.90;;;;;;4975923;28;20050;-83
2022/03/27 02:57:16;;;;;;;27.83;10.43;;;4.30;99.90;;;;;;4975961;28;20115;-83
2022/03/27 02:59:42;;;;;;;41.50;13.48;;;4.50;99.90;;;;;;4975474;28;20497;-83
2022/03/27 03:02:33;;;;;;;28.80;11.75;;;4.10;99.90;;;;;;4975761;28;20129;-83
2022/03/27 03:04:59;;;;;;;28.67;11.23;;;4.10;99.90;;;;;;4975225;28;20140;-83
2022/03/27 03:07:35;;;;;;;39.70;13.07;;;4.10;99.90;;;;;;4975969;28;20125;-83
2022/03/27 03:10:02;;;;;;;76.32;16.10;;;4.10;99.90;;;;;;4991889;28;20068;-83
2022/03/27 03:12:28;;;;;;;82.57;16.90;;;5.00;99.90;;;;;;4975812;28;20038;-83
2022/03/27 03:14:56;;;;;;;97.72;14.25;;;4.10;99.90;;;;;;4975265;28;20120;-83
2022/03/27 03:17:23;;;;;;;584.35;32.05;;;4.20;99.90;;;;;;4975289;28;20046;-83
2022/03/27 03:19:49;;;;;;;447.60;27.70;;;4.20;99.90;;;;;;4991673;28;20532;-83
2022/03/27 03:22:15;;;;;;;356.80;22.40;;;4.20;99.90;;;;;;4975404;28;20041;-82
2022/03/27 03:24:41;;;;;;;419.30;25.30;;;4.20;99.90;;;;;;4975796;28;20108;-83
2022/03/27 03:27:07;;;;;;;600.78;31.92;;;4.60;99.90;;;;;;4991066;28;20510;-84
2022/03/27 03:29:33;;;;;;;450.83;24.77;;;4.30;99.90;;;;;;4975699;28;20061;-83
2022/03/27 03:31:59;;;;;;;415.35;21.33;;;4.30;99.90;;;;;;4976056;28;20470;-83
2022/03/27 03:34:25;;;;;;;231.98;16.02;;;5.00;99.90;;;;;;4974223;28;20042;-84
2022/03/27 03:36:50;;;;;;;282.75;17.90;;;4.20;99.90;;;;;;4992301;28;20048;-83
2022/03/27 03:39:16;;;;;;;389.95;21.70;;;5.20;99.90;;;;;;4974645;28;20052;-83
2022/03/27 03:41:42;;;;;;;331.63;19.73;;;4.20;99.90;;;;;;4991177;28;20049;-83
2022/03/27 03:44:07;;;;;;;252.95;16.63;;;4.60;99.90;;;;;;4974615;28;20054;-83
2022/03/27 03:46:39;;;;;;;224.73;15.68;;;5.30;99.90;;;;;;4974829;28;20041;-83
2022/03/27 03:49:08;;;;;;;211.30;14.52;;;4.40;99.90;;;;;;4975309;28;20698;-84
2022/03/27 03:51:40;;;;;;;268.27;15.88;;;4.80;99.90;;;;;;4975749;28;20050;-83
2022/03/27 03:54:07;;;;;;;197.57;14.32;;;4.30;99.90;;;;;;4974105;28;20038;-83
2022/03/27 03:56:34;;;;;;;197.82;14.60;;;4.10;99.90;;;;;;4975838;28;20124;-84
2022/03/27 03:59:02;;;;;;;272.38;15.88;;;4.90;99.90;;;;;;4990246;28;20046;-83
2022/03/27 04:01:28;;;;;;;186.43;15.07;;;4.10;99.90;;;;;;4974142;28;20092;-84
2022/03/27 04:03:54;;;;;;;80.30;10.52;;;4.10;99.90;;;;;;4974995;28;20053;-83
2022/03/27 04:06:20;;;;;;;128.75;11.82;;;4.20;99.90;;;;;;4974281;28;20513;-83
2022/03/27 04:08:46;;;;;;;177.02;12.65;;;4.30;99.90;;;;;;4990538;28;20405;-84
2022/03/27 04:11:16;;;;;;;87.68;10.45;;;3.70;99.90;;;;;;4975029;28;20107;-83
2022/03/27 04:13:45;;;;;;;133.68;9.93;;;4.00;99.90;;;;;;4974692;28;20448;-83
2022/03/27 04:16:13;;;;;;;395.80;14.00;;;4.80;99.90;;;;;;4974004;28;20367;-83
2022/03/27 04:18:39;;;;;;;286.83;11.65;;;3.90;99.90;;;;;;4991163;28;20046;-83
2022/03/27 04:21:05;;;;;;;161.63;9.90;;;4.20;99.90;;;;;;4991149;28;20494;-83
2022/03/27 04:23:57;;;;;;;267.35;11.68;;;4.70;99.90;;;;;;4989604;28;20037;-83
2022/03/27 04:26:22;;;;;;;185.23;10.82;;;4.10;99.90;;;;;;4971289;28;20062;-84
2022/03/27 04:28:48;;;;;;;318.08;12.68;;;4.70;99.90;;;;;;4989181;28;20073;-83
2022/03/27 04:31:14;;;;;;;42.25;7.30;;;3.90;99.90;;;;;;4974623;28;20050;-83
2022/03/27 04:33:40;;;;;;;168.80;15.05;;;3.50;99.90;;;;;;4974975;28;20045;-85
2022/03/27 04:36:06;;;;;;;65.22;10.73;;;4.30;99.90;;;;;;4973757;28;20516;-84
2022/03/27 04:38:32;;;;;;;18.02;8.13;;;3.50;99.90;;;;;;4974298;28;20562;-84
2022/03/27 04:40:58;;;;;;;20.67;8.57;;;2.80;99.90;;;;;;4973967;28;20481;-85
2022/03/27 04:43:23;;;;;;;230.27;16.65;;;3.80;99.90;;;;;;4973457;28;20059;-84
2022/03/27 04:45:50;;;;;;;19.45;6.13;;;3.60;99.90;;;;;;4974308;28;20045;-84
2022/03/27 04:48:15;;;;;;;16.02;6.28;;;4.70;99.90;;;;;;4989481;28;20050;-84
2022/03/27 04:50:41;;;;;;;33.00;8.20;;;3.30;99.90;;;;;;4974074;28;20049;-85
2022/03/27 04:53:07;;;;;;;10.98;5.00;;;4.50;99.90;;;;;;4974107;28;20398;-83
2022/03/27 04:55:33;;;;;;;12.15;5.80;;;3.80;99.90;;;;;;4974592;28;20045;-83
2022/03/27 04:57:59;;;;;;;10.25;4.63;;;3.20;99.90;;;;;;4974155;28;20074;-84
2022/03/27 05:00:31;;;;;;;14.68;4.88;;;3.10;99.90;;;;;;4974646;28;20052;-84
2022/03/27 05:02:57;;;;;;;90.35;8.18;;;3.10;99.90;;;;;;4990775;28;20054;-84
2022/03/27 05:05:25;;;;;;;22.77;5.88;;;3.10;99.90;;;;;;4972903;28;20085;-83
2022/03/27 05:07:51;;;;;;;25.20;5.95;;;3.00;99.90;;;;;;4974375;28;20441;-83
2022/03/27 05:10:16;;;;;;;30.45;6.93;;;3.90;99.90;;;;;;4973174;28;20050;-83
2022/03/27 05:12:42;;;;;;;23.27;5.13;;;3.00;99.90;;;;;;4973784;28;20045;-84
2022/03/27 05:15:09;;;;;;;28.00;6.40;;;3.00;99.90;;;;;;4972769;28;20042;-83
2022/03/27 05:17:45;;;;;;;37.10;6.55;;;3.00;99.90;;;;;;4974608;28;20486;-83
2022/03/27 05:20:11;;;;;;;42.80;7.22;;;3.10;99.90;;;;;;4972330;28;20096;-83
2022/03/27 05:22:37;;;;;;;94.85;7.53;;;3.00;99.90;;;;;;4991001;28;20042;-83
2022/03/27 05:25:02;;;;;;;17.15;5.95;;;4.00;99.90;;;;;;4972764;28;20054;-84
2022/03/27 05:27:28;;;;;;;39.33;5.20;;;3.00;99.90;;;;;;4973828;28;20056;-84
2022/03/27 05:29:54;;;;;;;39.58;5.60;;;3.00;99.90;;;;;;4989985;28;20041;-84
2022/03/27 05:32:19;;;;;;;110.30;5.90;;;3.60;99.90;;;;;;4973023;28;20612;-85
2022/03/27 05:34:45;;;;;;;21.00;6.47;;;3.00;99.90;;;;;;4973622;28;20050;-84
2022/03/27 05:37:10;;;;;;;38.90;7.35;;;3.00;99.90;;;;;;4990007;28;20096;-84
2022/03/27 05:39:36;;;;;;;29.80;6.10;;;4.10;99.90;;;;;;4973104;28;20042;-83
2022/03/27 05:42:02;;;;;;;16.98;5.45;;;4.50;99.90;;;;;;4990606;28;20038;-84
2022/03/27 05:44:27;;;;;;;22.17;5.35;;;3.10;99.90;;;;;;4988678;28;20505;-83
2022/03/27 05:46:53;;;;;;;35.35;6.43;;;3.00;99.90;;;;;;4989753;28;20046;-83
2022/03/27 05:49:19;;;;;;;30.55;6.28;;;3.10;99.90;;;;;;4973487;28;20577;-84
2022/03/27 05:51:44;;;;;;;15.20;4.68;;;3.10;99.90;;;;;;4973703;28;20046;-83
2022/03/27 05:54:19;;;;;;;19.52;4.07;;;3.20;99.90;;;;;;4972464;28;20391;-84
2022/03/27 05:56:45;;;;;;;32.05;5.13;;;3.70;99.90;;;;;;4973923;28;20045;-83
2022/03/27 05:59:23;;;;;;;51.17;6.10;;;4.30;99.90;;;;;;4972369;28;20041;-82
2022/03/27 06:01:49;;;;;;;27.92;5.40;;;3.10;99.90;;;;;;4976381;28;20378;-84
2022/03/27 06:04:15;;;;;;;19.05;5.72;;;3.30;99.90;;;;;;4976487;28;20054;-83
2022/03/27 06:06:40;;;;;;;35.17;5.75;;;3.40;99.90;;;;;;4977631;28;20053;-83
2022/03/27 06:09:06;;;;;;;31.73;6.03;;;3.50;99.90;;;;;;4976415;28;20050;-83
2022/03/27 06:11:32;;;;;;;22.75;5.20;;;3.50;99.90;;;;;;4993111;28;20038;-84
2022/03/27 06:13:57;;;;;;;27.85;6.15;;;3.60;99.90;;;;;;4981096;28;20502;-83
2022/03/27 06:16:23;;;;;;;41.08;6.32;;;4.50;99.90;;;;;;4995377;28;20143;-83
2022/03/27 06:18:49;;;;;;;67.85;9.25;;;3.80;99.90;;;;;;4995857;28;20115;-83
2022/03/27 06:21:14;;;;;;;51.55;7.95;;;3.90;99.90;;;;;;5011542;28;20052;-83
2022/03/27 06:23:40;;;;;;;52.28;8.88;;;4.00;99.90;;;;;;5012629;28;20129;-83
2022/03/27 06:26:06;;;;;;;55.47;8.35;;;5.30;99.90;;;;;;4996408;28;20046;-83
2022/03/27 06:28:32;;;;;;;55.08;8.85;;;4.30;99.90;;;;;;5011856;28;20042;-84
2022/03/27 06:30:57;;;;;;;71.95;9.95;;;4.40;99.90;;;;;;4996771;28;20064;-85
2022/03/27 06:33:23;;;;;;;61.85;9.15;;;4.50;99.90;;;;;;4992469;28;20038;-84
2022/03/27 06:35:49;;;;;;;52.70;9.00;;;4.70;99.90;;;;;;4992229;28;20054;-84
2022/03/27 06:38:14;;;;;;;53.70;7.95;;;4.60;99.90;;;;;;4976176;28;20037;-84
2022/03/27 06:40:40;;;;;;;56.38;8.70;;;5.30;99.90;;;;;;4976852;28;20045;-84
2022/03/27 06:43:07;;;;;;;60.97;9.80;;;4.90;99.90;;;;;;4991641;28;20470;-84
2022/03/27 06:45:33;;;;;;;66.43;8.43;;;5.70;99.90;;;;;;4992213;28;20523;-84
2022/03/27 06:47:58;;;;;;;71.00;9.40;;;6.00;99.90;;;;;;4992463;28;20069;-84
2022/03/27 06:50:24;;;;;;;68.00;9.43;;;5.70;99.90;;;;;;4991665;28;20185;-85
2022/03/27 06:52:52;;;;;;;64.47;10.15;;;5.40;99.90;;;;;;4993128;28;20053;-84
2022/03/27 06:55:19;;;;;;;65.50;10.38;;;5.10;99.90;;;;;;4975507;28;20050;-84
2022/03/27 06:57:45;;;;;;;73.47;11.00;;;5.60;99.90;;;;;;4975465;28;20057;-84
2022/03/27 07:03:02;;;;;;;69.80;11.35;;;5.80;99.90;;;;;;4992223;28;20104;-84
2022/03/27 07:05:30;;;;;;;69.70;11.43;;;5.80;99.90;;;;;;4990977;28;20045;-85
2022/03/27 07:07:56;;;;;;;64.40;9.43;;;5.80;99.90;;;;;;4976012;28;20042;-84
2022/03/27 07:10:28;;;;;;;72.43;10.40;;;6.40;99.90;;;;;;4975610;28;20049;-84
2022/03/27 07:12:54;;;;;;;72.18;10.25;;;6.00;99.90;;;;;;4975749;28;20054;-84
2022/03/27 07:15:20;;;;;;;68.20;10.27;;;6.10;99.90;;;;;;4974785;28;20058;-86
2022/03/27 07:17:48;;;;;;;85.38;11.57;;;6.80;99.90;;;;;;4976318;28;20065;-85
2022/03/27 07:20:19;;;;;;;71.35;11.10;;;6.20;99.90;;;;;;4975456;28;20053;-85
2022/03/27 07:22:45;;;;;;;77.50;10.88;;;7.40;99.90;;;;;;4976424;28;20131;-86
2022/03/27 07:25:11;;;;;;;71.10;10.90;;;5.80;99.90;;;;;;4974652;28;20052;-86
2022/03/27 07:27:46;;;;;;;84.85;11.55;;;6.40;99.90;;;;;;4975451;28;20501;-84
2022/03/27 07:30:12;;;;;;;70.40;11.35;;;6.00;99.90;;;;;;4974643;28;20050;-86
2022/03/27 07:32:39;;;;;;;65.55;11.27;;;6.60;99.90;;;;;;4975675;28;20042;-85
2022/03/27 07:35:08;;;;;;;53.95;9.98;;;7.50;99.90;;;;;;4976187;28;20131;-85
2022/03/27 07:37:34;;;;;;;71.13;11.02;;;6.50;99.90;;;;;;4975880;28;20046;-85
2022/03/27 07:40:08;;;;;;;57.40;10.20;;;6.70;99.90;;;;;;4990923;28;20279;-84
2022/03/27 07:42:37;;;;;;;59.83;9.55;;;6.70;99.90;;;;;;4976311;28;20375;-84
2022/03/27 07:45:04;;;;;;;54.95;10.30;;;6.80;99.90;;;;;;4974827;28;20580;-83
2022/03/27 07:47:30;;;;;;;64.68;11.88;;;6.90;99.90;;;;;;4975060;28;20042;-84
2022/03/27 07:49:55;;;;;;;74.32;11.57;;;6.90;99.90;;;;;;4992195;28;20481;-85
2022/03/27 07:52:22;;;;;;;53.72;9.95;;;7.10;99.90;;;;;;4976979;28;20072;-83
2022/03/27 07:54:49;;;;;;;52.05;10.52;;;7.20;99.90;;;;;;4987117;28;20040;-82
2022/03/27 07:57:15;;;;;;;61.50;10.77;;;7.30;99.90;;;;;;4988590;28;20069;-84
2022/03/27 07:59:40;;;;;;;57.53;9.55;;;7.80;99.90;;;;;;4988378;28;20045;-82
2022/03/27 08:02:06;;;;;;;64.35;10.55;;;8.10;99.90;;;;;;4977271;28;20042;-83
2022/03/27 08:04:34;;;;;;;56.17;10.00;;;7.30;99.90;;;;;;4989516;28;20057;-85
2022/03/27 08:07:00;;;;;;;63.03;10.60;;;8.10;99.90;;;;;;4993627;28;20100;-85
2022/03/27 08:09:26;;;;;;;56.33;9.82;;;7.40;99.90;;;;;;4992825;28;20524;-87
2022/03/27 08:11:52;;;;;;;61.90;9.88;;;7.60;99.90;;;;;;4994974;28;20069;-85
2022/03/27 08:14:18;;;;;;;56.50;8.57;;;8.50;99.90;;;;;;5008454;28;20456;-84
2022/03/27 08:16:44;;;;;;;58.08;9.35;;;7.80;99.90;;;;;;4993251;28;20038;-83
2022/03/27 08:19:09;;;;;;;53.05;9.32;;;7.50;99.90;;;;;;4990963;28;20497;-82
2022/03/27 08:21:35;;;;;;;53.00;9.13;;;7.60;99.90;;;;;;4993389;28;20041;-82
2022/03/27 08:24:01;;;;;;;51.95;9.77;;;8.00;99.90;;;;;;4986634;28;20049;-84
2022/03/27 08:29:11;;;;;;;68.70;9.98;;;7.80;99.90;;;;;;4997056;28;20076;-83
2022/03/27 08:31:37;;;;;;;51.75;9.52;;;8.60;99.90;;;;;;4985430;28;20050;-83
2022/03/27 08:34:03;;;;;;;47.45;10.00;;;7.70;99.90;;;;;;4993237;28;20114;-85
2022/03/27 08:36:31;;;;;;;46.53;8.82;;;7.70;99.90;;;;;;4985506;28;20551;-84
2022/03/27 08:38:57;;;;;;;55.03;8.82;;;7.80;99.90;;;;;;5003469;28;20053;-84
2022/03/27 08:41:23;;;;;;;46.60;10.13;;;7.80;99.90;;;;;;4992421;28;20060;-83
2022/03/27 08:43:58;;;;;;;45.90;8.38;;;7.80;99.90;;;;;;4985904;28;20520;-84
2022/03/27 08:46:25;;;;;;;53.20;9.43;;;7.80;99.90;;;;;;5001494;28;20144;-84
2022/03/27 08:48:51;;;;;;;64.35;14.10;;;8.40;99.90;;;;;;4992958;28;20397;-84
2022/03/27 08:51:27;;;;;;;55.00;9.77;;;8.00;99.90;;;;;;4978064;28;20045;-83
2022/03/27 08:54:01;;;;;;;49.55;9.52;;;8.10;99.90;;;;;;4988957;28;20095;-85
2022/03/27 08:56:29;;;;;;;43.60;8.10;;;8.20;99.90;;;;;;4991456;28;20561;-85
2022/03/27 08:58:59;;;;;;;57.72;9.90;;;8.20;99.90;;;;;;4983329;28;20501;-84
2022/03/27 09:01:27;;;;;;;53.10;9.20;;;8.20;99.90;;;;;;4993428;28;20049;-85
2022/03/27 09:03:52;;;;;;;49.80;8.20;;;8.60;99.90;;;;;;4976913;28;20089;-81
2022/03/27 09:06:21;;;;;;;58.13;8.85;;;9.00;99.90;;;;;;4974554;28;20085;-84
2022/03/27 09:08:49;;;;;;;61.47;10.65;;;9.10;99.90;;;;;;4985603;28;20049;-85
2022/03/27 09:11:16;;;;;;;49.55;8.82;;;9.30;99.90;;;;;;4993144;28;20041;-84
2022/03/27 09:13:46;;;;;;;51.58;9.35;;;8.70;99.90;;;;;;4990935;28;20042;-85
2022/03/27 09:16:12;;;;;;;48.63;7.55;;;8.60;99.90;;;;;;4974376;28;20478;-87
2022/03/27 09:18:49;;;;;;;42.03;9.20;;;9.40;99.90;;;;;;4975348;28;20164;-83
2022/03/27 09:21:16;;;;;;;50.58;9.90;;;8.80;99.90;;;;;;4974478;28;20509;-85
2022/03/27 09:23:42;;;;;;;47.78;8.65;;;8.90;99.90;;;;;;5006145;28;20038;-84
2022/03/27 09:26:13;;;;;;;47.30;9.02;;;9.00;99.90;;;;;;5009924;28;20045;-85
2022/03/27 09:28:42;;;;;;;39.55;7.28;;;9.10;99.90;;;;;;4993637;28;20077;-85
2022/03/27 09:31:14;;;;;;;39.35;7.68;;;9.20;99.90;;;;;;4987243;28;20508;-85
2022/03/27 09:33:49;;;;;;;44.50;7.18;;;9.00;99.90;;;;;;4973748;28;20061;-84
2022/03/27 09:36:28;;;;;;;41.97;7.40;;;9.20;99.90;;;;;;4986132;28;20045;-85
2022/03/27 09:39:16;;;;;;;36.05;7.05;;;9.20;99.90;;;;;;5011998;28;20721;-84
2022/03/27 09:41:44;;;;;;;39.63;7.90;;;9.40;99.90;;;;;;4992783;28;20489;-89
2022/03/27 09:44:16;;;;;;;40.90;6.75;;;9.40;99.90;;;;;;4999926;28;20049;-86
2022/03/27 09:46:48;;;;;;;42.15;8.13;;;9.50;99.90;;;;;;5013930;28;20041;-88
2022/03/27 09:49:15;;;;;;;48.53;8.68;;;9.50;99.90;;;;;;5006212;28;20463;-89
2022/03/27 09:51:54;;;;;;;44.65;8.50;;;9.60;99.90;;;;;;5015379;28;20067;-88
2022/03/27 09:54:21;;;;;;;44.90;7.75;;;9.60;99.90;;;;;;5031147;28;20102;-87
2022/03/27 09:56:47;;;;;;;44.15;8.13;;;10.20;99.90;;;;;;4993589;28;20065;-87
2022/03/27 09:59:30;;;;;;;41.60;8.63;;;9.80;99.90;;;;;;5008597;28;20041;-89
2022/03/27 10:02:17;;;;;;;42.77;8.37;;;9.90;99.90;;;;;;5024557;28;20044;-86
2022/03/27 10:05:04;;;;;;;44.58;8.32;;;10.00;99.90;;;;;;5004436;28;20516;-87
2022/03/27 10:07:48;;;;;;;37.40;8.13;;;10.00;99.90;;;;;;4994654;28;20128;-87
2022/03/27 10:10:19;;;;;;;38.70;7.30;;;10.10;99.90;;;;;;4979473;28;20046;-86
2022/03/27 10:12:48;;;;;;;39.08;8.63;;;10.20;99.90;;;;;;4995282;28;20045;-86
2022/03/27 10:15:26;;;;;;;40.85;7.65;;;10.80;99.90;;;;;;4990642;28;20119;-85
2022/03/27 10:17:56;;;;;;;36.80;7.47;;;10.50;99.90;;;;;;4978955;28;20042;-88
2022/03/27 10:20:25;;;;;;;48.65;8.75;;;11.30;99.90;;;;;;4983535;28;20057;-88
2022/03/27 10:23:03;;;;;;;46.70;7.80;;;10.60;99.90;;;;;;4981658;28;20050;-87
2022/03/27 10:25:42;;;;;;;44.63;7.70;;;10.70;99.90;;;;;;4978766;28;20476;-87
2022/03/27 10:28:08;;;;;;;40.08;7.68;;;10.90;99.90;;;;;;5008331;28;20059;-87
2022/03/27 10:30:34;;;;;;;39.80;6.97;;;11.20;99.90;;;;;;5004812;28;20525;-88
2022/03/27 10:33:01;;;;;;;37.03;7.18;;;10.90;99.90;;;;;;4994736;28;20097;-88
2022/03/27 10:35:33;;;;;;;40.92;6.85;;;11.00;99.90;;;;;;4980980;28;20855;-87
2022/03/27 10:38:31;;;;;;;41.85;6.40;;;11.00;99.90;;;;;;4997687;28;20045;-87
2022/03/27 10:41:11;;;;;;;32.67;6.30;;;11.10;99.90;;;;;;4988377;28;20042;-87
2022/03/27 10:44:03;;;;;;;32.60;6.40;;;11.10;99.90;;;;;;4994169;28;20049;-86
2022/03/27 10:46:29;;;;;;;35.37;6.90;;;11.50;99.90;;;;;;4976953;28;20038;-86
2022/03/27 10:49:16;;;;;;;42.58;7.13;;;11.10;99.90;;;;;;4994536;28;20784;-85
2022/03/27 10:51:44;;;;;;;39.97;7.85;;;12.20;99.90;;;;;;4997106;28;20092;-86
2022/03/27 10:54:14;;;;;;;25.05;6.05;;;11.50;99.90;;;;;;4996569;28;20408;-86
2022/03/27 10:57:02;;;;;;;32.05;5.35;;;11.50;99.90;;;;;;4996657;28;20045;-86
2022/03/27 10:59:46;;;;;;;33.28;6.72;;;11.40;99.90;;;;;;5005329;28;20852;-85
2022/03/27 11:02:46;;;;;;;36.08;6.65;;;11.50;99.90;;;;;;4992608;28;20049;-86
2022/03/27 11:05:37;;;;;;;32.08;5.93;;;11.50;99.90;;;;;;4973115;28;20042;-85
2022/03/27 11:08:16;;;;;;;28.23;5.65;;;11.70;99.90;;;;;;4974069;28;20490;-86
2022/03/27 11:10:59;;;;;;;36.53;7.40;;;12.40;99.90;;;;;;4973613;28;20054;-86
2022/03/27 11:13:39;;;;;;;28.40;6.22;;;11.70;99.90;;;;;;4973737;28;20089;-85
2022/03/27 11:16:15;;;;;;;30.70;5.65;;;11.70;99.90;;;;;;4973953;28;20054;-86
2022/03/27 11:18:44;;;;;;;31.17;6.05;;;12.10;99.90;;;;;;4974393;28;20109;-86
2022/03/27 11:21:14;;;;;;;34.45;7.20;;;12.60;99.90;;;;;;4974523;28;20038;-87
2022/03/27 11:23:56;;;;;;;30.92;5.82;;;12.00;99.90;;;;;;4974690;28;20489;-86
2022/03/27 11:26:21;;;;;;;26.38;5.07;;;12.10;99.90;;;;;;4974316;28;20054;-87
2022/03/27 11:28:51;;;;;;;25.50;5.22;;;12.60;99.90;;;;;;4974268;28;20112;-87
2022/03/27 11:31:31;;;;;;;28.23;5.50;;;12.30;99.90;;;;;;4974111;28;20089;-88
2022/03/27 11:34:04;;;;;;;31.02;5.55;;;12.30;99.90;;;;;;4973816;28;20054;-85
2022/03/27 11:36:30;;;;;;;29.27;5.32;;;12.30;99.90;;;;;;4974990;28;20052;-85
2022/03/27 11:39:06;;;;;;;27.77;4.93;;;12.40;99.90;;;;;;4964275;28;20050;-85
2022/03/27 11:41:38;;;;;;;27.05;6.53;;;12.50;99.90;;;;;;4956790;28;20046;-83
2022/03/27 11:44:17;;;;;;;25.17;4.85;;;12.60;99.90;;;;;;4980245;28;20050;-80
2022/03/27 11:46:48;;;;;;;27.75;4.57;;;12.70;99.90;;;;;;4986085;28;20054;-80
2022/03/27 11:49:14;;;;;;;24.65;5.30;;;12.80;99.90;;;;;;4977589;28;20132;-81
2022/03/27 11:51:40;;;;;;;23.45;4.78;;;13.10;99.90;;;;;;4975715;28;20057;-80
2022/03/27 11:54:18;;;;;;;18.27;3.28;;;12.80;99.90;;;;;;4982906;28;20076;-80
2022/03/27 11:56:55;;;;;;;21.67;4.05;;;12.80;99.90;;;;;;4987353;28;20065;-81
2022/03/27 11:59:23;;;;;;;25.17;3.92;;;12.80;99.90;;;;;;4969691;28;20049;-81
2022/03/27 12:01:51;;;;;;;17.67;3.92;;;13.20;99.90;;;;;;4977672;28;20069;-79
2022/03/27 12:04:18;;;;;;;20.00;3.92;;;12.90;99.90;;;;;;4987778;28;20060;-81
2022/03/27 12:06:45;;;;;;;18.83;3.90;;;13.00;99.90;;;;;;4998542;28;20038;-80
2022/03/27 12:09:24;;;;;;;23.88;4.75;;;13.50;99.90;;;;;;4995011;28;20045;-81
2022/03/27 12:12:08;;;;;;;25.42;4.85;;;13.10;99.90;;;;;;4982181;28;20085;-78
2022/03/27 12:14:57;;;;;;;21.50;4.25;;;13.10;99.90;;;;;;4980594;28;20045;-79
2022/03/27 12:17:25;;;;;;;19.27;3.65;;;13.20;99.90;;;;;;5000861;28;20049;-78
2022/03/27 12:20:05;;;;;;;21.15;3.67;;;13.20;99.90;;;;;;4990805;28;20103;-79
2022/03/27 12:22:34;;;;;;;16.60;3.63;;;13.30;99.90;;;;;;4997214;28;20045;-78
2022/03/27 12:25:01;;;;;;;19.45;3.65;;;13.30;99.90;;;;;;5005544;28;20489;-78
2022/03/27 12:30:10;;;;;;;11.90;2.78;;;13.30;99.90;;;;;;5003545;28;20467;-78
2022/03/27 12:32:36;;;;;;;21.95;3.28;;;13.30;98.90;;;;;;5000970;28;20049;-79
2022/03/27 12:35:05;;;;;;;14.93;3.20;;;13.40;98.30;;;;;;4995093;28;20041;-78
2022/03/27 12:37:32;;;;;;;14.38;2.83;;;13.40;98.30;;;;;;4993282;28;20041;-79
2022/03/27 12:40:03;;;;;;;13.63;2.88;;;14.00;98.20;;;;;;5010164;28;20144;-78
2022/03/27 12:42:46;;;;;;;12.52;2.17;;;13.50;97.00;;;;;;4997145;28;20049;-79
2022/03/27 12:45:14;;;;;;;10.18;2.63;;;13.50;89.90;;;;;;4994156;28;20468;-78
2022/03/27 12:47:43;;;;;;;14.05;2.80;;;13.50;91.00;;;;;;4993506;28;20044;-78
2022/03/27 12:50:13;;;;;;;13.18;2.50;;;13.50;90.90;;;;;;4994275;28;20132;-78
2022/03/27 12:52:46;;;;;;;10.52;2.50;;;13.40;85.20;;;;;;5001053;28;20475;-78
2022/03/27 12:55:11;;;;;;;24.67;3.42;;;13.40;86.20;;;;;;4993040;28;20103;-78
2022/03/27 12:57:49;;;;;;;15.10;2.13;;;13.30;84.60;;;;;;5012465;28;20389;-78
2022/03/27 13:00:16;;;;;;;12.45;2.97;;;13.30;84.80;;;;;;5007297;28;20049;-78